Time;durP1;ratioP1;P1;durP2;ratioP2;P2;SDS_P1;SDS_P2;PMS_P1;PMS_P2;Temp;Humidity;BMP_temperature;BMP_pressure;BME280_temperature;BME280_humidity;BME280_pressure;Samples;Min_cycle;Max_cycle;Signal;HPM_P1;HPM_P2
2023/11/22 00:02:02;;;;;;;16.70;10.15;;;4.90;99.90;;;;;;5083569;28;20032;-70
2023/11/22 00:04:28;;;;;;;14.15;9.35;;;4.90;99.90;;;;;;5060419;28;20441;-70
2023/11/22 00:06:54;;;;;;;19.40;10.27;;;4.90;99.90;;;;;;5066305;28;20044;-70
2023/11/22 00:09:22;;;;;;;16.52;9.68;;;4.90;99.90;;;;;;5059891;28;20040;-70
2023/11/22 00:11:48;;;;;;;16.48;9.68;;;4.90;99.90;;;;;;5075581;28;20049;-70
2023/11/22 00:14:14;;;;;;;18.33;10.05;;;4.90;99.90;;;;;;5084910;28;20042;-70
2023/11/22 00:16:40;;;;;;;17.90;10.57;;;4.80;99.90;;;;;;5089242;28;20032;-70
2023/11/22 00:19:06;;;;;;;15.60;9.95;;;4.80;99.90;;;;;;5061677;28;20076;-70
2023/11/22 00:21:32;;;;;;;18.63;9.45;;;4.90;99.90;;;;;;5058077;28;20376;-70
2023/11/22 00:23:58;;;;;;;16.33;10.10;;;4.90;99.90;;;;;;5079831;28;20040;-70
2023/11/22 00:26:23;;;;;;;17.85;10.77;;;4.80;99.90;;;;;;5072622;28;20132;-70
2023/11/22 00:28:49;;;;;;;17.45;10.27;;;4.90;99.90;;;;;;5076338;28;20487;-70
2023/11/22 00:31:15;;;;;;;16.55;9.90;;;4.90;99.90;;;;;;5067998;28;20051;-70
2023/11/22 00:33:40;;;;;;;16.25;10.25;;;4.90;99.90;;;;;;5071177;28;20040;-70
2023/11/22 00:36:08;;;;;;;16.05;9.85;;;4.90;99.90;;;;;;5081984;28;20067;-70
2023/11/22 00:38:35;;;;;;;18.55;10.00;;;4.80;99.90;;;;;;5083593;28;20047;-70
2023/11/22 00:41:02;;;;;;;16.77;9.35;;;4.90;99.90;;;;;;5083113;28;20518;-70
2023/11/22 00:43:27;;;;;;;15.52;10.02;;;4.80;99.90;;;;;;5079127;28;20506;-70
2023/11/22 00:45:53;;;;;;;15.95;10.23;;;4.80;99.90;;;;;;5058085;28;20135;-70
2023/11/22 00:48:19;;;;;;;17.27;10.13;;;4.80;99.90;;;;;;5078591;28;20029;-70
2023/11/22 00:50:44;;;;;;;17.08;10.18;;;4.80;99.90;;;;;;5076788;28;20040;-70
2023/11/22 00:53:10;;;;;;;15.20;9.45;;;4.80;99.90;;;;;;5054359;28;20051;-70
2023/11/22 00:55:36;;;;;;;18.20;9.25;;;4.80;99.90;;;;;;5061031;28;20067;-70
2023/11/22 00:58:04;;;;;;;15.15;9.75;;;4.80;99.90;;;;;;5080996;28;20071;-70
2023/11/22 01:00:30;;;;;;;18.10;9.82;;;4.80;99.90;;;;;;5079198;28;20040;-70
2023/11/22 01:02:56;;;;;;;16.80;10.30;;;4.80;99.90;;;;;;5062632;28;20119;-70
2023/11/22 01:05:22;;;;;;;19.15;10.40;;;4.80;99.90;;;;;;5084451;28;20115;-70
2023/11/22 01:07:48;;;;;;;16.98;10.30;;;4.80;99.90;;;;;;5084540;28;20046;-70
2023/11/22 01:10:15;;;;;;;15.25;9.57;;;4.80;99.90;;;;;;5082658;28;20044;-70
2023/11/22 01:12:41;;;;;;;16.70;9.85;;;4.80;99.90;;;;;;5085464;28;20086;-70
2023/11/22 01:15:08;;;;;;;16.75;10.00;;;4.70;99.90;;;;;;5090657;28;20056;-70
2023/11/22 01:17:34;;;;;;;18.35;10.13;;;4.70;99.90;;;;;;5062193;28;20044;-70
2023/11/22 01:20:01;;;;;;;19.63;10.13;;;4.70;99.90;;;;;;5064094;28;20043;-70
2023/11/22 01:22:27;;;;;;;15.93;9.55;;;4.70;99.90;;;;;;5086868;28;20161;-70
2023/11/22 01:24:53;;;;;;;17.15;10.13;;;4.70;99.90;;;;;;5081424;28;20118;-70
2023/11/22 01:27:19;;;;;;;15.48;9.63;;;4.60;99.90;;;;;;5088468;28;20070;-70
2023/11/22 01:29:45;;;;;;;17.92;9.95;;;4.60;99.90;;;;;;5090092;28;20032;-70
2023/11/22 01:32:11;;;;;;;15.88;9.38;;;4.60;99.90;;;;;;5080132;28;20089;-70
2023/11/22 01:34:36;;;;;;;18.20;9.77;;;4.60;99.90;;;;;;5074260;28;20497;-70
2023/11/22 01:37:03;;;;;;;14.45;8.88;;;4.50;99.90;;;;;;5079695;28;20051;-70
2023/11/22 01:39:28;;;;;;;15.57;9.75;;;4.50;99.90;;;;;;5067156;28;20049;-70
2023/11/22 01:41:54;;;;;;;16.83;9.88;;;4.50;99.90;;;;;;5080600;28;20587;-70
2023/11/22 01:44:20;;;;;;;20.67;10.00;;;4.40;99.90;;;;;;5085848;28;20040;-70
2023/11/22 01:46:45;;;;;;;16.67;9.77;;;4.40;99.90;;;;;;5087581;28;20039;-70
2023/11/22 01:49:12;;;;;;;15.50;9.27;;;4.30;99.90;;;;;;5079476;28;20044;-70
2023/11/22 01:51:41;;;;;;;15.30;9.32;;;4.30;99.90;;;;;;5073353;28;20123;-70
2023/11/22 01:54:10;;;;;;;13.75;8.65;;;4.30;99.90;;;;;;5062186;28;20063;-70
2023/11/22 01:56:38;;;;;;;16.08;8.77;;;4.30;99.90;;;;;;5084091;28;20036;-70
2023/11/22 01:59:04;;;;;;;17.73;9.25;;;4.20;99.90;;;;;;5044947;28;20039;-70
2023/11/22 02:01:31;;;;;;;15.35;8.85;;;4.20;99.90;;;;;;5080220;28;20051;-70
2023/11/22 02:03:57;;;;;;;15.05;9.15;;;4.10;99.90;;;;;;5070611;28;20048;-70
2023/11/22 02:06:23;;;;;;;14.73;9.30;;;4.10;99.90;;;;;;5087120;28;20044;-70
2023/11/22 02:08:49;;;;;;;13.60;8.88;;;4.10;99.90;;;;;;5071017;28;20534;-70
2023/11/22 02:11:22;;;;;;;15.45;8.95;;;4.00;99.90;;;;;;5064291;28;20203;-70
2023/11/22 02:13:48;;;;;;;;;;;4.00;99.90;;;;;;5086952;28;20729;-70
2023/11/22 02:16:14;;;;;;;13.25;7.60;;;3.90;99.90;;;;;;5070352;28;19916;-70
2023/11/22 02:18:42;;;;;;;20.08;8.57;;;3.90;99.90;;;;;;5083421;28;20439;-70
2023/11/22 02:21:07;;;;;;;16.77;8.35;;;3.80;99.90;;;;;;5079413;28;20039;-70
2023/11/22 02:23:33;;;;;;;14.80;8.45;;;3.80;99.90;;;;;;5084524;28;20038;-70
2023/11/22 02:25:58;;;;;;;13.05;8.50;;;3.80;99.90;;;;;;5085944;28;20485;-70
2023/11/22 02:28:24;;;;;;;15.20;8.52;;;3.80;99.90;;;;;;5065877;28;20040;-70
2023/11/22 02:30:50;;;;;;;18.67;9.50;;;3.80;99.90;;;;;;5055373;28;20134;-70
2023/11/22 02:33:15;;;;;;;17.88;9.60;;;3.80;99.90;;;;;;5078058;28;20033;-70
2023/11/22 02:35:42;;;;;;;15.48;8.88;;;3.70;99.90;;;;;;5072042;28;20040;-70
2023/11/22 02:38:07;;;;;;;16.92;9.65;;;3.70;99.90;;;;;;5087307;28;20115;-70
2023/11/22 02:40:34;;;;;;;15.10;9.27;;;3.70;99.90;;;;;;5072667;28;20220;-70
2023/11/22 02:43:07;;;;;;;16.02;9.55;;;3.70;99.90;;;;;;5062989;28;20044;-70
2023/11/22 02:45:33;;;;;;;14.73;9.23;;;3.70;99.90;;;;;;5066667;28;20040;-70
2023/11/22 02:48:01;;;;;;;17.10;9.00;;;3.70;99.90;;;;;;5084532;28;20510;-70
2023/11/22 02:50:27;;;;;;;18.27;9.10;;;3.60;99.90;;;;;;5086504;28;20385;-70
2023/11/22 02:52:53;;;;;;;15.05;8.48;;;3.60;99.90;;;;;;5074485;28;20040;-71
2023/11/22 02:55:19;;;;;;;14.82;8.05;;;3.60;99.90;;;;;;5071063;28;20047;-70
2023/11/22 02:57:45;;;;;;;16.67;8.63;;;3.50;99.90;;;;;;5090826;28;20036;-70
2023/11/22 03:00:15;;;;;;;13.88;8.07;;;3.50;99.90;;;;;;5090086;28;20035;-70
2023/11/22 03:02:41;;;;;;;14.60;7.15;;;3.50;99.90;;;;;;5090566;28;20147;-70
2023/11/22 03:05:09;;;;;;;11.48;6.90;;;3.50;99.90;;;;;;5068229;28;20467;-70
2023/11/22 03:07:34;;;;;;;12.73;6.55;;;3.40;99.90;;;;;;5059143;28;20036;-70
2023/11/22 03:10:00;;;;;;;12.02;6.40;;;3.30;99.90;;;;;;5084145;28;20051;-70
2023/11/22 03:12:26;;;;;;;11.43;7.20;;;3.30;99.90;;;;;;5085281;28;20040;-70
2023/11/22 03:14:54;;;;;;;11.27;6.63;;;3.20;99.90;;;;;;5089463;28;20470;-70
2023/11/22 03:17:19;;;;;;;15.55;8.10;;;3.20;99.90;;;;;;5066856;28;20036;-70
2023/11/22 03:19:46;;;;;;;13.73;7.63;;;3.20;99.90;;;;;;5081472;28;20043;-70
2023/11/22 03:22:12;;;;;;;14.43;8.07;;;3.20;99.90;;;;;;5065271;28;20123;-70
2023/11/22 03:24:38;;;;;;;13.07;8.05;;;3.20;99.90;;;;;;5082587;28;20548;-70
2023/11/22 03:27:04;;;;;;;14.52;8.23;;;3.20;99.90;;;;;;5088092;28;20028;-70
2023/11/22 03:29:29;;;;;;;16.38;7.78;;;3.20;99.90;;;;;;5065265;28;20123;-70
2023/11/22 03:31:55;;;;;;;12.65;7.90;;;3.20;99.90;;;;;;5087279;28;20101;-70
2023/11/22 03:34:21;;;;;;;13.15;8.02;;;3.20;99.90;;;;;;5076115;28;20037;-70
2023/11/22 03:36:47;;;;;;;18.40;8.10;;;3.20;99.90;;;;;;5059794;28;20597;-70
2023/11/22 03:39:15;;;;;;;15.82;9.00;;;3.20;99.90;;;;;;5082405;28;20071;-70
2023/11/22 03:41:42;;;;;;;14.98;8.80;;;3.20;99.90;;;;;;5082491;28;20028;-70
2023/11/22 03:44:10;;;;;;;20.63;9.38;;;3.20;99.90;;;;;;5081366;28;20168;-70
2023/11/22 03:46:36;;;;;;;18.13;9.88;;;3.20;99.90;;;;;;5083430;28;20368;-70
2023/11/22 03:49:09;;;;;;;19.30;9.73;;;3.20;99.90;;;;;;5075175;28;20044;-70
2023/11/22 03:51:35;;;;;;;18.60;10.18;;;3.20;99.90;;;;;;5058022;28;20502;-70
2023/11/22 03:54:05;;;;;;;21.02;10.48;;;3.20;99.90;;;;;;5060274;28;20372;-70
2023/11/22 03:56:31;;;;;;;21.35;11.00;;;3.20;99.90;;;;;;5075461;28;20508;-70
2023/11/22 03:58:56;;;;;;;20.40;11.20;;;3.20;99.90;;;;;;5072706;28;20068;-70
2023/11/22 04:01:22;;;;;;;19.63;10.55;;;3.20;99.90;;;;;;5057892;28;20442;-70
2023/11/22 04:03:48;;;;;;;20.52;11.30;;;3.30;99.90;;;;;;5053934;28;20036;-70
2023/11/22 04:06:18;;;;;;;19.60;11.10;;;3.60;99.90;;;;;;5077032;28;20036;-70
2023/11/22 04:08:45;;;;;;;21.35;11.23;;;3.30;99.90;;;;;;5040414;28;20046;-70
2023/11/22 04:11:15;;;;;;;17.77;10.32;;;3.30;99.90;;;;;;5077158;28;20051;-70
2023/11/22 04:13:40;;;;;;;22.17;11.52;;;3.30;99.90;;;;;;5075283;28;20036;-70
2023/11/22 04:16:11;;;;;;;20.80;10.60;;;3.20;99.90;;;;;;5089568;28;20028;-70
2023/11/22 04:18:38;;;;;;;19.92;11.65;;;3.30;99.90;;;;;;5066170;28;20480;-70
2023/11/22 04:21:04;;;;;;;20.35;10.85;;;3.30;99.90;;;;;;5082461;28;20036;-70
2023/11/22 04:23:32;;;;;;;25.95;11.25;;;3.20;99.90;;;;;;5083030;28;20098;-70
2023/11/22 04:25:58;;;;;;;19.80;10.93;;;3.20;99.90;;;;;;5080353;28;20040;-70
2023/11/22 04:28:25;;;;;;;20.73;10.93;;;3.20;99.90;;;;;;5066022;28;20041;-70
2023/11/22 04:30:51;;;;;;;16.88;8.68;;;3.20;99.90;;;;;;5083333;28;20032;-70
2023/11/22 04:33:17;;;;;;;13.05;7.72;;;3.20;99.90;;;;;;5067444;28;20040;-70
2023/11/22 04:35:43;;;;;;;17.25;8.10;;;3.10;99.90;;;;;;5069061;28;20043;-70
2023/11/22 04:38:09;;;;;;;16.80;8.57;;;3.00;99.90;;;;;;5072572;28;20119;-70
2023/11/22 04:40:34;;;;;;;15.27;8.43;;;3.00;99.90;;;;;;5084599;28;20039;-70
2023/11/22 04:43:00;;;;;;;15.98;8.32;;;2.90;99.90;;;;;;5091143;28;20036;-70
2023/11/22 04:45:26;;;;;;;14.88;8.75;;;2.90;99.90;;;;;;5082349;28;20122;-70
2023/11/22 04:47:51;;;;;;;14.18;8.52;;;2.90;99.90;;;;;;5085148;28;20121;-70
2023/11/22 04:50:17;;;;;;;17.13;9.00;;;2.80;99.90;;;;;;5079855;28;20036;-70
2023/11/22 04:52:43;;;;;;;14.25;8.20;;;2.80;99.90;;;;;;5085843;28;20502;-70
2023/11/22 04:55:09;;;;;;;16.13;7.97;;;2.80;99.90;;;;;;5071927;28;20039;-70
2023/11/22 04:57:34;;;;;;;14.98;8.25;;;2.70;99.90;;;;;;5078123;28;20033;-69
2023/11/22 05:00:00;;;;;;;14.73;8.02;;;2.70;99.90;;;;;;5089784;28;20036;-70
2023/11/22 05:02:26;;;;;;;16.17;8.48;;;2.70;99.90;;;;;;5087357;28;20054;-70
2023/11/22 05:04:53;;;;;;;14.38;8.57;;;2.60;99.90;;;;;;5079568;28;20518;-70
2023/11/22 05:07:22;;;;;;;15.20;8.77;;;2.70;99.90;;;;;;5089229;28;20032;-70
2023/11/22 05:09:47;;;;;;;17.38;9.27;;;2.60;99.90;;;;;;5086225;28;20044;-70
2023/11/22 05:12:14;;;;;;;16.27;8.73;;;2.70;99.90;;;;;;5091415;28;20052;-70
2023/11/22 05:14:40;;;;;;;18.00;8.45;;;2.60;99.90;;;;;;5092699;28;20043;-70
2023/11/22 05:17:06;;;;;;;15.68;8.95;;;2.60;99.90;;;;;;5091722;28;20399;-70
2023/11/22 05:19:31;;;;;;;18.27;8.85;;;2.60;99.90;;;;;;5074852;28;20119;-70
2023/11/22 05:21:57;;;;;;;16.10;9.57;;;2.60;99.90;;;;;;5087883;28;20036;-70
2023/11/22 05:24:23;;;;;;;17.02;9.07;;;2.60;99.90;;;;;;5074087;28;20444;-70
2023/11/22 05:26:49;;;;;;;16.75;9.15;;;2.60;99.90;;;;;;5092806;28;20040;-70
2023/11/22 05:29:14;;;;;;;20.13;10.43;;;2.70;99.90;;;;;;5088244;28;20028;-69
2023/11/22 05:31:40;;;;;;;18.85;9.55;;;2.60;99.90;;;;;;5083735;28;20097;-70
2023/11/22 05:34:06;;;;;;;17.85;10.40;;;2.60;99.90;;;;;;5072189;28;20039;-69
2023/11/22 05:36:32;;;;;;;19.58;9.48;;;2.60;99.90;;;;;;5068298;28;20637;-70
2023/11/22 05:39:00;;;;;;;16.02;8.55;;;2.60;99.90;;;;;;5070779;28;20107;-70
2023/11/22 05:41:26;;;;;;;21.35;9.02;;;2.60;99.90;;;;;;5084837;28;20036;-69
2023/11/22 05:43:52;;;;;;;22.35;9.00;;;2.60;99.90;;;;;;5083884;28;20036;-70
2023/11/22 05:46:24;;;;;;;18.17;9.27;;;2.60;99.90;;;;;;5088901;28;20047;-69
2023/11/22 05:48:54;;;;;;;17.27;8.07;;;2.60;99.90;;;;;;5083619;28;20044;-70
2023/11/22 05:51:20;;;;;;;15.52;8.75;;;2.60;99.90;;;;;;5067758;28;20037;-70
2023/11/22 05:53:46;;;;;;;16.30;8.43;;;2.60;99.90;;;;;;5074298;28;20125;-70
2023/11/22 05:56:12;;;;;;;16.27;9.25;;;2.60;99.90;;;;;;5088016;28;20118;-68
2023/11/22 05:58:38;;;;;;;16.05;8.55;;;2.60;99.90;;;;;;5085184;28;20495;-68
2023/11/22 06:01:05;;;;;;;18.23;9.55;;;2.60;99.90;;;;;;5071959;28;20119;-68
2023/11/22 06:03:31;;;;;;;17.30;9.27;;;2.60;99.90;;;;;;5079209;28;20389;-68
2023/11/22 06:05:57;;;;;;;16.48;8.65;;;2.60;99.90;;;;;;5066003;28;20089;-68
2023/11/22 06:08:23;;;;;;;17.88;8.70;;;2.60;99.90;;;;;;5054503;28;20044;-68
2023/11/22 06:10:48;;;;;;;15.57;8.82;;;2.60;99.90;;;;;;5074858;28;20045;-68
2023/11/22 06:13:14;;;;;;;15.13;8.80;;;2.60;99.90;;;;;;5083558;28;20036;-67
2023/11/22 06:15:40;;;;;;;16.27;8.35;;;2.60;99.90;;;;;;5067018;28;20070;-67
2023/11/22 06:18:06;;;;;;;18.40;8.68;;;2.60;99.90;;;;;;5078615;28;20077;-67
2023/11/22 06:20:32;;;;;;;16.90;8.63;;;2.60;99.90;;;;;;5086716;28;20510;-68
2023/11/22 06:22:57;;;;;;;18.70;9.95;;;2.60;99.90;;;;;;5086998;28;20089;-68
2023/11/22 06:25:23;;;;;;;16.23;9.25;;;2.60;99.90;;;;;;5045022;28;20115;-68
2023/11/22 06:27:49;;;;;;;15.68;9.57;;;2.60;99.90;;;;;;5062867;28;20036;-67
2023/11/22 06:30:14;;;;;;;15.10;8.73;;;2.60;99.90;;;;;;5078132;28;20082;-68
2023/11/22 06:32:42;;;;;;;18.20;9.70;;;2.70;99.90;;;;;;5071361;28;20074;-68
2023/11/22 06:35:09;;;;;;;17.23;8.85;;;2.60;99.90;;;;;;5086674;28;20062;-68
2023/11/22 06:37:35;;;;;;;19.15;9.65;;;2.60;99.90;;;;;;5082001;28;20043;-67
2023/11/22 06:40:01;;;;;;;16.70;8.85;;;2.70;99.90;;;;;;5085288;28;20599;-68
2023/11/22 06:42:26;;;;;;;17.45;9.07;;;2.70;99.90;;;;;;5074492;28;20554;-68
2023/11/22 06:44:53;;;;;;;15.65;8.63;;;2.70;99.90;;;;;;5063843;28;20036;-68
2023/11/22 06:47:22;;;;;;;18.25;9.07;;;2.70;99.90;;;;;;5087266;28;20067;-68
2023/11/22 06:49:47;;;;;;;18.48;9.65;;;2.70;99.90;;;;;;5081433;28;20036;-68
2023/11/22 06:52:13;;;;;;;16.10;8.57;;;2.70;99.90;;;;;;5080247;28;20518;-68
2023/11/22 06:54:38;;;;;;;15.20;8.60;;;2.60;99.90;;;;;;5089611;28;20527;-67
2023/11/22 06:57:04;;;;;;;15.52;8.55;;;2.60;99.90;;;;;;5070159;28;20032;-67
2023/11/22 06:59:30;;;;;;;17.02;8.98;;;2.60;99.90;;;;;;5075752;28;20041;-67
2023/11/22 07:01:58;;;;;;;16.40;8.73;;;2.60;99.90;;;;;;5066976;28;20032;-67
2023/11/22 07:04:23;;;;;;;15.50;9.13;;;2.60;99.90;;;;;;5073351;28;20036;-67
2023/11/22 07:06:49;;;;;;;15.90;8.77;;;2.60;99.90;;;;;;5089645;28;20043;-68
2023/11/22 07:09:15;;;;;;;16.67;9.43;;;2.60;99.90;;;;;;5071411;28;20038;-68
2023/11/22 07:11:41;;;;;;;15.85;9.35;;;2.60;99.90;;;;;;5089045;28;20078;-67
2023/11/22 07:14:07;;;;;;;19.60;9.98;;;2.70;99.90;;;;;;5071559;28;20071;-67
2023/11/22 07:16:33;;;;;;;20.50;11.00;;;2.70;99.90;;;;;;5086525;28;20079;-67
2023/11/22 07:19:02;;;;;;;21.73;10.82;;;2.70;99.90;;;;;;5062933;28;20040;-67
2023/11/22 07:21:29;;;;;;;22.45;11.85;;;2.70;99.90;;;;;;5079749;28;20059;-67
2023/11/22 07:23:55;;;;;;;20.70;11.73;;;2.70;99.90;;;;;;5080012;28;20045;-67
2023/11/22 07:26:21;;;;;;;22.20;11.77;;;2.70;99.90;;;;;;5085766;28;20051;-67
2023/11/22 07:28:47;;;;;;;27.05;12.60;;;2.80;99.90;;;;;;5076612;28;20047;-67
2023/11/22 07:31:12;;;;;;;24.27;12.57;;;2.80;99.90;;;;;;5065774;28;20059;-67
2023/11/22 07:33:41;;;;;;;26.27;12.27;;;2.80;99.90;;;;;;5066035;28;20032;-68
2023/11/22 07:36:07;;;;;;;26.88;13.52;;;2.80;99.90;;;;;;5082643;28;20154;-68
2023/11/22 07:38:33;;;;;;;24.58;12.50;;;2.90;99.90;;;;;;5075467;28;20091;-67
2023/11/22 07:40:59;;;;;;;27.45;13.05;;;2.90;99.90;;;;;;5077069;28;20040;-68
2023/11/22 07:43:24;;;;;;;25.00;12.90;;;2.90;99.90;;;;;;5075203;28;20510;-67
2023/11/22 07:45:51;;;;;;;23.80;12.13;;;2.90;99.90;;;;;;5080762;28;20036;-68
2023/11/22 07:48:17;;;;;;;26.98;12.88;;;2.90;99.90;;;;;;5073065;28;20460;-67
2023/11/22 07:50:44;;;;;;;26.10;13.95;;;3.00;99.90;;;;;;5068293;28;20128;-68
2023/11/22 07:53:11;;;;;;;25.33;13.98;;;3.00;99.90;;;;;;5078922;28;20090;-67
2023/11/22 07:55:38;;;;;;;27.10;13.90;;;3.00;99.90;;;;;;5058019;28;20044;-67
2023/11/22 07:58:06;;;;;;;28.10;14.55;;;3.10;99.90;;;;;;5085679;28;20024;-68
2023/11/22 08:00:33;;;;;;;28.17;14.38;;;3.10;99.90;;;;;;5056217;28;20430;-67
2023/11/22 08:03:02;;;;;;;27.52;14.25;;;3.10;99.90;;;;;;5059804;28;20048;-68
2023/11/22 08:05:34;;;;;;;24.75;13.60;;;3.20;99.90;;;;;;5078317;28;20542;-68
2023/11/22 08:08:07;;;;;;;27.65;14.18;;;3.20;99.90;;;;;;5077474;28;20395;-68
2023/11/22 08:10:36;;;;;;;32.63;13.95;;;3.20;99.90;;;;;;5042410;28;20111;-68
2023/11/22 08:13:03;;;;;;;29.27;15.38;;;3.20;99.90;;;;;;5069236;28;20032;-68
2023/11/22 08:15:29;;;;;;;30.48;14.57;;;3.30;99.90;;;;;;5056648;28;20093;-67
2023/11/22 08:17:55;;;;;;;23.90;14.20;;;3.30;99.90;;;;;;5074109;28;20036;-68
2023/11/22 08:20:21;;;;;;;27.08;14.38;;;3.30;99.90;;;;;;5070287;28;20446;-68
2023/11/22 08:22:50;;;;;;;30.08;14.15;;;3.30;99.90;;;;;;5084451;28;20032;-68
2023/11/22 08:25:16;;;;;;;27.52;14.77;;;3.40;99.90;;;;;;5080512;28;20380;-68
2023/11/22 08:27:42;;;;;;;26.60;14.32;;;3.40;99.90;;;;;;5072066;28;20170;-68
2023/11/22 08:30:15;;;;;;;26.77;14.43;;;3.50;99.90;;;;;;5058806;28;20075;-68
2023/11/22 08:32:42;;;;;;;26.88;14.50;;;3.50;99.90;;;;;;5064432;28;20437;-68
2023/11/22 08:35:09;;;;;;;26.33;14.50;;;3.50;99.90;;;;;;5078843;28;20074;-68
2023/11/22 08:37:37;;;;;;;27.50;14.32;;;3.60;99.90;;;;;;5076798;28;20429;-68
2023/11/22 08:40:06;;;;;;;26.58;14.15;;;3.60;99.90;;;;;;5072547;28;20491;-68
2023/11/22 08:42:33;;;;;;;28.88;15.57;;;3.60;99.90;;;;;;5075551;28;20055;-68
2023/11/22 08:44:59;;;;;;;29.85;15.43;;;3.60;99.90;;;;;;5054493;28;20036;-68
2023/11/22 08:47:24;;;;;;;26.45;14.23;;;3.60;99.90;;;;;;5079713;28;20032;-68
2023/11/22 08:49:50;;;;;;;27.15;14.93;;;3.70;99.90;;;;;;5060983;28;20044;-67
2023/11/22 08:52:16;;;;;;;27.85;15.35;;;3.70;99.90;;;;;;5038375;28;20403;-68
2023/11/22 08:54:41;;;;;;;25.08;14.05;;;3.70;99.90;;;;;;5084917;28;20037;-68
2023/11/22 08:57:07;;;;;;;27.25;15.20;;;3.70;99.90;;;;;;5076450;28;20072;-68
2023/11/22 08:59:37;;;;;;;26.75;14.88;;;3.80;99.90;;;;;;5089447;28;20056;-68
2023/11/22 09:02:04;;;;;;;27.52;15.68;;;3.80;99.90;;;;;;5089060;28;20040;-68
2023/11/22 09:04:31;;;;;;;24.55;14.43;;;3.80;99.90;;;;;;5079969;28;20063;-68
2023/11/22 09:06:57;;;;;;;26.73;15.20;;;3.80;99.90;;;;;;5064947;28;20684;-68
2023/11/22 09:09:30;;;;;;;28.98;15.88;;;3.80;99.90;;;;;;5084557;28;20229;-68
2023/11/22 09:11:59;;;;;;;25.13;14.20;;;3.90;99.90;;;;;;5082469;28;20032;-68
2023/11/22 09:14:25;;;;;;;26.88;14.23;;;3.90;99.90;;;;;;5065613;28;20079;-67
2023/11/22 09:16:54;;;;;;;28.38;15.00;;;4.00;99.90;;;;;;5063094;28;20074;-68
2023/11/22 09:19:21;;;;;;;27.38;16.13;;;4.00;99.90;;;;;;5081039;28;20080;-68
2023/11/22 09:21:47;;;;;;;26.65;15.02;;;4.00;99.90;;;;;;5082554;28;20047;-67
2023/11/22 09:24:13;;;;;;;27.05;15.35;;;4.10;99.90;;;;;;5068712;28;20143;-68
2023/11/22 09:26:39;;;;;;;24.65;14.23;;;4.10;99.90;;;;;;5070874;28;20534;-68
2023/11/22 09:29:04;;;;;;;27.02;14.98;;;4.10;99.90;;;;;;5081463;28;20037;-67
2023/11/22 09:31:30;;;;;;;26.60;14.43;;;4.10;99.90;;;;;;5081906;28;20059;-68
2023/11/22 09:33:56;;;;;;;24.20;13.60;;;4.10;99.90;;;;;;5073322;28;20398;-68
2023/11/22 09:36:24;;;;;;;26.85;13.60;;;4.10;99.90;;;;;;5073376;28;20044;-67
2023/11/22 09:38:50;;;;;;;26.50;14.23;;;4.10;99.90;;;;;;5074362;28;20549;-68
2023/11/22 09:41:17;;;;;;;22.92;13.15;;;4.10;99.90;;;;;;5065021;28;20044;-68
2023/11/22 09:43:44;;;;;;;24.08;13.95;;;4.10;99.90;;;;;;5070588;28;20517;-68
2023/11/22 09:46:11;;;;;;;23.05;13.70;;;4.10;99.90;;;;;;5064102;28;20048;-68
2023/11/22 09:48:38;;;;;;;24.30;13.40;;;4.10;99.90;;;;;;5064498;28;20037;-68
2023/11/22 09:51:21;;;;;;;26.05;14.05;;;4.10;99.90;;;;;;5090068;28;20036;-68
2023/11/22 09:53:56;;;;;;;25.50;13.30;;;4.20;99.90;;;;;;5053337;28;20415;-67
2023/11/22 09:56:24;;;;;;;26.88;14.02;;;4.20;99.90;;;;;;5064913;28;20036;-68
2023/11/22 09:58:56;;;;;;;27.23;14.02;;;4.20;99.90;;;;;;5086129;28;20399;-68
2023/11/22 10:01:24;;;;;;;25.23;13.15;;;4.20;99.90;;;;;;5073853;28;20048;-68
2023/11/22 10:03:51;;;;;;;25.05;14.60;;;4.20;99.90;;;;;;5083468;28;20032;-68
2023/11/22 10:06:18;;;;;;;25.75;14.13;;;4.20;99.90;;;;;;5091395;28;20387;-68
2023/11/22 10:08:47;;;;;;;30.90;15.80;;;4.20;99.90;;;;;;5075935;28;20044;-68
2023/11/22 10:11:17;;;;;;;28.88;15.30;;;4.20;99.90;;;;;;5077208;28;20040;-68
2023/11/22 10:13:47;;;;;;;25.73;13.95;;;4.30;99.90;;;;;;5072104;28;20032;-68
2023/11/22 10:16:15;;;;;;;27.20;14.68;;;4.30;99.90;;;;;;5090281;28;20074;-68
2023/11/22 10:18:48;;;;;;;27.00;15.43;;;4.30;99.90;;;;;;5084548;28;20643;-68
2023/11/22 10:21:30;;;;;;;25.10;14.30;;;4.30;99.90;;;;;;5060159;28;20039;-68
2023/11/22 10:24:03;;;;;;;25.25;13.90;;;4.40;99.90;;;;;;5066433;28;20048;-67
2023/11/22 10:26:29;;;;;;;26.15;13.82;;;4.40;99.90;;;;;;5089629;28;20036;-68
2023/11/22 10:28:56;;;;;;;23.60;13.82;;;4.40;99.90;;;;;;5084615;28;20048;-68
2023/11/22 10:31:23;;;;;;;26.63;14.05;;;4.50;99.90;;;;;;5072454;28;20081;-68
2023/11/22 10:33:49;;;;;;;26.80;13.95;;;4.50;99.90;;;;;;5054630;28;20395;-68
2023/11/22 10:36:16;;;;;;;24.92;13.88;;;4.50;99.90;;;;;;5085069;28;20487;-68
2023/11/22 10:38:46;;;;;;;24.88;13.85;;;4.50;99.90;;;;;;5040660;28;20040;-70
2023/11/22 10:41:13;;;;;;;24.13;14.07;;;4.50;99.90;;;;;;5081415;28;20035;-70
2023/11/22 10:43:39;;;;;;;25.17;14.43;;;4.50;99.90;;;;;;5077902;28;20036;-70
2023/11/22 10:46:06;;;;;;;27.08;14.02;;;4.60;99.90;;;;;;5082896;28;20032;-70
2023/11/22 10:48:35;;;;;;;25.60;14.13;;;4.60;99.90;;;;;;5083692;28;20043;-70
2023/11/22 10:51:06;;;;;;;24.20;13.60;;;4.60;99.90;;;;;;5081284;28;20043;-69
2023/11/22 10:53:38;;;;;;;26.45;14.65;;;4.60;99.90;;;;;;5056578;28;20446;-70
2023/11/22 10:56:15;;;;;;;23.15;13.77;;;4.70;99.90;;;;;;5072483;28;20373;-69
2023/11/22 10:58:52;;;;;;;20.48;13.15;;;4.70;99.90;;;;;;5053013;22;20080;-76
2023/11/22 11:01:25;;;;;;;23.38;13.40;;;4.70;99.90;;;;;;5032080;28;20119;-76
2023/11/22 11:04:11;;;;;;;25.42;12.75;;;4.80;99.90;;;;;;5031802;28;20386;-74
2023/11/22 11:06:37;;;;;;;24.75;13.00;;;4.80;99.90;;;;;;5031726;28;20443;-73
2023/11/22 11:09:10;;;;;;;22.58;12.82;;;4.90;99.90;;;;;;5016715;28;20136;-74
2023/11/22 11:11:37;;;;;;;20.58;12.05;;;4.90;99.90;;;;;;5025780;28;20037;-74
2023/11/22 11:14:05;;;;;;;20.15;12.02;;;4.90;99.90;;;;;;5000824;28;20082;-75
2023/11/22 11:16:37;;;;;;;20.35;12.02;;;4.90;99.90;;;;;;5008373;28;20379;-76
2023/11/22 11:19:04;;;;;;;20.17;12.30;;;4.80;99.90;;;;;;5007263;28;20119;-78
2023/11/22 11:21:32;;;;;;;20.90;11.85;;;4.90;99.90;;;;;;5013445;28;20041;-75
2023/11/22 11:24:03;;;;;;;22.65;11.30;;;4.90;99.90;;;;;;5007041;28;20053;-75
2023/11/22 11:26:32;;;;;;;19.40;10.93;;;4.90;99.90;;;;;;5008902;28;20033;-75
2023/11/22 11:28:58;;;;;;;18.17;10.40;;;4.90;99.90;;;;;;5010170;28;20041;-74
2023/11/22 11:31:24;;;;;;;18.30;11.07;;;5.00;99.90;;;;;;5010414;28;20076;-76
2023/11/22 11:33:53;;;;;;;17.52;11.05;;;5.10;99.90;;;;;;5012782;28;20060;-74
2023/11/22 11:36:32;;;;;;;17.17;10.63;;;5.10;99.90;;;;;;5003988;28;20045;-78
2023/11/22 11:39:05;;;;;;;17.23;9.85;;;5.10;99.90;;;;;;5011767;28;20393;-77
2023/11/22 11:41:33;;;;;;;17.92;10.02;;;5.10;99.90;;;;;;5010112;28;20037;-75
2023/11/22 11:44:01;;;;;;;17.60;10.30;;;5.30;99.90;;;;;;5011349;28;20088;-74
2023/11/22 11:46:28;;;;;;;17.67;10.45;;;5.20;99.90;;;;;;5009013;28;20042;-75
2023/11/22 11:48:55;;;;;;;17.33;10.63;;;5.20;99.90;;;;;;5007114;28;20052;-75
2023/11/22 11:51:28;;;;;;;17.77;9.77;;;5.30;99.90;;;;;;5022229;28;20394;-76
2023/11/22 11:53:55;;;;;;;17.00;9.95;;;5.30;99.90;;;;;;5009917;28;20049;-78
2023/11/22 11:56:21;;;;;;;17.27;10.98;;;5.30;99.90;;;;;;5011128;28;20436;-75
2023/11/22 11:58:49;;;;;;;15.23;9.57;;;5.40;99.90;;;;;;5008567;28;20596;-75
2023/11/22 12:01:22;;;;;;;17.63;10.13;;;5.60;99.90;;;;;;5011615;28;20081;-75
2023/11/22 12:03:48;;;;;;;18.42;10.30;;;5.40;99.90;;;;;;5007656;28;20041;-76
2023/11/22 12:06:16;;;;;;;15.57;10.13;;;5.40;99.90;;;;;;5012649;28;20502;-75
2023/11/22 12:08:42;;;;;;;15.93;9.68;;;5.50;99.90;;;;;;5012738;28;20042;-73
2023/11/22 12:11:08;;;;;;;14.13;9.15;;;5.50;99.90;;;;;;5008346;28;20600;-76
2023/11/22 12:13:34;;;;;;;15.57;9.15;;;5.50;99.90;;;;;;5012614;28;20041;-76
2023/11/22 12:16:05;;;;;;;17.52;9.60;;;5.60;99.90;;;;;;5011066;28;20429;-75
2023/11/22 12:18:39;;;;;;;15.45;9.23;;;5.60;99.90;;;;;;5013673;28;20568;-77
2023/11/22 12:21:06;;;;;;;15.48;9.32;;;5.70;99.90;;;;;;5004858;28;20069;-75
2023/11/22 12:23:32;;;;;;;16.45;8.90;;;5.70;99.90;;;;;;5013040;28;20045;-76
2023/11/22 12:26:01;;;;;;;13.60;8.70;;;5.80;99.90;;;;;;5013587;28;20121;-76
2023/11/22 12:28:27;;;;;;;16.27;8.77;;;5.80;99.90;;;;;;5009046;28;20044;-77
2023/11/22 12:30:53;;;;;;;14.50;9.20;;;5.90;99.90;;;;;;5015971;28;20084;-76
2023/11/22 12:33:20;;;;;;;16.20;9.07;;;5.90;99.90;;;;;;5015773;28;20033;-76
2023/11/22 12:35:49;;;;;;;16.15;8.90;;;5.80;99.90;;;;;;5032561;28;20037;-74
2023/11/22 12:38:16;;;;;;;14.88;9.18;;;5.80;99.90;;;;;;5014053;28;20042;-75
2023/11/22 12:40:47;;;;;;;14.20;8.73;;;5.80;99.90;;;;;;5008503;28;20561;-74
2023/11/22 12:43:14;;;;;;;13.77;8.57;;;5.70;99.90;;;;;;5011665;28;20033;-76